sensor_id;sensor_type;location;lat;lon;timestamp;temperature;humidity
15983;DHT22;14442;50.196;8.096;2022-09-11T00:00:37;21.20;67.30
15983;DHT22;14442;50.196;8.096;2022-09-11T00:03:04;21.30;67.40
15983;DHT22;14442;50.196;8.096;2022-09-11T00:05:34;21.30;67.30
15983;DHT22;14442;50.196;8.096;2022-09-11T00:08:03;21.20;67.20
15983;DHT22;14442;50.196;8.096;2022-09-11T00:10:29;21.20;67.10
15983;DHT22;14442;50.196;8.096;2022-09-11T00:13:00;21.20;67.10
15983;DHT22;14442;50.196;8.096;2022-09-11T00:15:28;21.30;67.20
15983;DHT22;14442;50.196;8.096;2022-09-11T00:17:54;21.20;67.10
15983;DHT22;14442;50.196;8.096;2022-09-11T00:20:21;21.20;67.20
15983;DHT22;14442;50.196;8.096;2022-09-11T00:22:48;21.20;67.20
15983;DHT22;14442;50.196;8.096;2022-09-11T00:25:15;21.30;67.40
15983;DHT22;14442;50.196;8.096;2022-09-11T00:27:41;21.20;67.30
15983;DHT22;14442;50.196;8.096;2022-09-11T00:30:10;21.20;67.20
15983;DHT22;14442;50.196;8.096;2022-09-11T00:32:38;21.20;67.30
15983;DHT22;14442;50.196;8.096;2022-09-11T00:35:06;21.20;67.20
15983;DHT22;14442;50.196;8.096;2022-09-11T00:37:33;21.20;67.30
15983;DHT22;14442;50.196;8.096;2022-09-11T00:40:00;21.20;67.20
15983;DHT22;14442;50.196;8.096;2022-09-11T00:42:26;21.20;67.10
15983;DHT22;14442;50.196;8.096;2022-09-11T00:45:02;21.20;67.10
15983;DHT22;14442;50.196;8.096;2022-09-11T00:47:30;21.20;67.10
15983;DHT22;14442;50.196;8.096;2022-09-11T00:50:06;21.20;67.10
15983;DHT22;14442;50.196;8.096;2022-09-11T00:52:35;21.20;67.10
15983;DHT22;14442;50.196;8.096;2022-09-11T00:55:06;21.20;67.20
15983;DHT22;14442;50.196;8.096;2022-09-11T00:57:37;21.20;67.20
15983;DHT22;14442;50.196;8.096;2022-09-11T01:00:06;21.20;67.10
15983;DHT22;14442;50.196;8.096;2022-09-11T01:02:36;21.20;67.20
15983;DHT22;14442;50.196;8.096;2022-09-11T01:05:04;21.20;67.20
15983;DHT22;14442;50.196;8.096;2022-09-11T01:07:32;21.20;67.20
15983;DHT22;14442;50.196;8.096;2022-09-11T01:09:59;21.20;67.10
15983;DHT22;14442;50.196;8.096;2022-09-11T01:12:33;21.20;67.10
15983;DHT22;14442;50.196;8.096;2022-09-11T01:15:04;21.20;67.20
15983;DHT22;14442;50.196;8.096;2022-09-11T01:17:37;21.20;67.20
15983;DHT22;14442;50.196;8.096;2022-09-11T01:20:20;21.10;67.20
15983;DHT22;14442;50.196;8.096;2022-09-11T01:22:59;21.20;67.40
15983;DHT22;14442;50.196;8.096;2022-09-11T01:25:34;21.20;67.30
15983;DHT22;14442;50.196;8.096;2022-09-11T01:28:11;21.20;67.30
15983;DHT22;14442;50.196;8.096;2022-09-11T01:30:40;21.20;67.30
15983;DHT22;14442;50.196;8.096;2022-09-11T01:33:16;21.20;67.30
15983;DHT22;14442;50.196;8.096;2022-09-11T01:35:53;21.20;67.20
15983;DHT22;14442;50.196;8.096;2022-09-11T01:38:25;21.20;67.20
15983;DHT22;14442;50.196;8.096;2022-09-11T01:40:58;21.20;67.10
15983;DHT22;14442;50.196;8.096;2022-09-11T01:43:31;21.20;67.10
15983;DHT22;14442;50.196;8.096;2022-09-11T01:46:01;21.10;67.00
15983;DHT22;14442;50.196;8.096;2022-09-11T01:48:30;21.10;66.90
15983;DHT22;14442;50.196;8.096;2022-09-11T01:51:03;21.20;67.00
15983;DHT22;14442;50.196;8.096;2022-09-11T01:53:34;21.10;67.00
15983;DHT22;14442;50.196;8.096;2022-09-11T01:56:08;21.10;67.00
15983;DHT22;14442;50.196;8.096;2022-09-11T01:58:40;21.20;67.00
15983;DHT22;14442;50.196;8.096;2022-09-11T02:01:11;21.10;66.90
15983;DHT22;14442;50.196;8.096;2022-09-11T02:03:43;21.10;66.90
15983;DHT22;14442;50.196;8.096;2022-09-11T02:06:13;21.10;66.90
15983;DHT22;14442;50.196;8.096;2022-09-11T02:08:44;21.10;67.00
15983;DHT22;14442;50.196;8.096;2022-09-11T02:11:14;21.10;67.00
15983;DHT22;14442;50.196;8.096;2022-09-11T02:13:47;21.10;67.00
15983;DHT22;14442;50.196;8.096;2022-09-11T02:16:18;21.10;67.00
15983;DHT22;14442;50.196;8.096;2022-09-11T02:18:55;21.10;67.00
15983;DHT22;14442;50.196;8.096;2022-09-11T02:21:23;21.10;67.10
15983;DHT22;14442;50.196;8.096;2022-09-11T02:23:50;21.10;67.10
15983;DHT22;14442;50.196;8.096;2022-09-11T02:26:20;21.10;67.10
15983;DHT22;14442;50.196;8.096;2022-09-11T02:28:50;21.10;67.10
15983;DHT22;14442;50.196;8.096;2022-09-11T02:31:17;21.10;67.10
15983;DHT22;14442;50.196;8.096;2022-09-11T02:33:45;21.10;67.10
15983;DHT22;14442;50.196;8.096;2022-09-11T02:36:23;21.10;67.20
15983;DHT22;14442;50.196;8.096;2022-09-11T02:39:01;21.10;67.10
15983;DHT22;14442;50.196;8.096;2022-09-11T02:41:41;21.00;67.00
15983;DHT22;14442;50.196;8.096;2022-09-11T02:44:17;21.10;67.20
15983;DHT22;14442;50.196;8.096;2022-09-11T02:47:05;21.10;67.10
15983;DHT22;14442;50.196;8.096;2022-09-11T02:49:42;21.10;67.10
15983;DHT22;14442;50.196;8.096;2022-09-11T02:52:20;21.10;67.20
15983;DHT22;14442;50.196;8.096;2022-09-11T02:54:54;21.10;67.20
15983;DHT22;14442;50.196;8.096;2022-09-11T02:57:27;21.10;67.30
15983;DHT22;14442;50.196;8.096;2022-09-11T02:59:58;21.00;67.10
15983;DHT22;14442;50.196;8.096;2022-09-11T03:02:27;21.10;67.20
15983;DHT22;14442;50.196;8.096;2022-09-11T03:04:54;21.00;67.20
15983;DHT22;14442;50.196;8.096;2022-09-11T03:07:21;21.00;67.20
15983;DHT22;14442;50.196;8.096;2022-09-11T03:09:48;21.00;67.20
15983;DHT22;14442;50.196;8.096;2022-09-11T03:12:14;21.00;67.20
15983;DHT22;14442;50.196;8.096;2022-09-11T03:14:42;21.10;67.30
15983;DHT22;14442;50.196;8.096;2022-09-11T03:17:10;21.00;67.20
15983;DHT22;14442;50.196;8.096;2022-09-11T03:19:37;21.00;67.20
15983;DHT22;14442;50.196;8.096;2022-09-11T03:22:04;21.00;67.20
15983;DHT22;14442;50.196;8.096;2022-09-11T03:24:30;21.00;67.20
15983;DHT22;14442;50.196;8.096;2022-09-11T03:26:57;21.00;67.20
15983;DHT22;14442;50.196;8.096;2022-09-11T03:29:24;21.00;67.20
15983;DHT22;14442;50.196;8.096;2022-09-11T03:31:50;21.00;67.20
15983;DHT22;14442;50.196;8.096;2022-09-11T03:34:18;21.00;67.20
15983;DHT22;14442;50.196;8.096;2022-09-11T03:36:47;21.00;67.10
15983;DHT22;14442;50.196;8.096;2022-09-11T03:39:13;21.00;67.20
15983;DHT22;14442;50.196;8.096;2022-09-11T03:41:40;21.00;67.10
15983;DHT22;14442;50.196;8.096;2022-09-11T03:44:07;21.00;67.20
15983;DHT22;14442;50.196;8.096;2022-09-11T03:46:33;21.00;67.20
15983;DHT22;14442;50.196;8.096;2022-09-11T03:49:00;21.00;67.80
15983;DHT22;14442;50.196;8.096;2022-09-11T03:51:28;21.00;67.20
15983;DHT22;14442;50.196;8.096;2022-09-11T03:53:58;21.00;67.20
15983;DHT22;14442;50.196;8.096;2022-09-11T03:56:25;21.00;67.20
15983;DHT22;14442;50.196;8.096;2022-09-11T03:58:53;20.90;67.10
15983;DHT22;14442;50.196;8.096;2022-09-11T04:01:21;21.00;67.20
15983;DHT22;14442;50.196;8.096;2022-09-11T04:03:48;21.00;67.20
15983;DHT22;14442;50.196;8.096;2022-09-11T04:06:15;20.90;67.10
15983;DHT22;14442;50.196;8.096;2022-09-11T04:08:43;20.90;67.10
15983;DHT22;14442;50.196;8.096;2022-09-11T04:11:10;20.90;67.10
15983;DHT22;14442;50.196;8.096;2022-09-11T04:13:40;20.90;67.00
15983;DHT22;14442;50.196;8.096;2022-09-11T04:16:11;20.90;67.10
15983;DHT22;14442;50.196;8.096;2022-09-11T04:18:38;20.90;67.10
15983;DHT22;14442;50.196;8.096;2022-09-11T04:21:07;20.90;67.00
15983;DHT22;14442;50.196;8.096;2022-09-11T04:23:34;20.90;67.00
15983;DHT22;14442;50.196;8.096;2022-09-11T04:26:03;20.90;67.00
15983;DHT22;14442;50.196;8.096;2022-09-11T04:28:38;20.90;67.00
15983;DHT22;14442;50.196;8.096;2022-09-11T04:31:05;20.90;67.00
15983;DHT22;14442;50.196;8.096;2022-09-11T04:33:33;20.90;66.90
15983;DHT22;14442;50.196;8.096;2022-09-11T04:36:03;20.90;66.90
15983;DHT22;14442;50.196;8.096;2022-09-11T04:38:30;20.90;66.90
15983;DHT22;14442;50.196;8.096;2022-09-11T04:40:59;20.90;66.90
15983;DHT22;14442;50.196;8.096;2022-09-11T04:43:28;20.90;66.90
15983;DHT22;14442;50.196;8.096;2022-09-11T04:45:59;20.90;66.90
15983;DHT22;14442;50.196;8.096;2022-09-11T04:48:25;20.90;66.90
15983;DHT22;14442;50.196;8.096;2022-09-11T04:50:58;20.90;66.90
15983;DHT22;14442;50.196;8.096;2022-09-11T04:53:25;20.90;66.90
15983;DHT22;14442;50.196;8.096;2022-09-11T04:56:00;20.90;66.90
15983;DHT22;14442;50.196;8.096;2022-09-11T04:58:29;20.90;66.80
15983;DHT22;14442;50.196;8.096;2022-09-11T05:00:56;20.90;66.90
15983;DHT22;14442;50.196;8.096;2022-09-11T05:03:23;20.90;66.80
15983;DHT22;14442;50.196;8.096;2022-09-11T05:05:49;20.90;66.90
15983;DHT22;14442;50.196;8.096;2022-09-11T05:08:16;20.90;66.80
15983;DHT22;14442;50.196;8.096;2022-09-11T05:10:44;20.90;66.80
15983;DHT22;14442;50.196;8.096;2022-09-11T05:13:12;20.90;66.80
15983;DHT22;14442;50.196;8.096;2022-09-11T05:15:40;20.90;66.80
15983;DHT22;14442;50.196;8.096;2022-09-11T05:18:09;20.80;66.70
15983;DHT22;14442;50.196;8.096;2022-09-11T05:20:35;20.90;66.80
15983;DHT22;14442;50.196;8.096;2022-09-11T05:23:02;20.90;66.90
15983;DHT22;14442;50.196;8.096;2022-09-11T05:25:29;20.90;66.90
15983;DHT22;14442;50.196;8.096;2022-09-11T05:27:56;20.90;66.90
15983;DHT22;14442;50.196;8.096;2022-09-11T05:30:23;20.90;66.90
15983;DHT22;14442;50.196;8.096;2022-09-11T05:32:52;20.90;66.90
15983;DHT22;14442;50.196;8.096;2022-09-11T05:35:20;20.90;66.80
15983;DHT22;14442;50.196;8.096;2022-09-11T05:37:48;20.90;66.90
15983;DHT22;14442;50.196;8.096;2022-09-11T05:40:15;20.90;66.80
15983;DHT22;14442;50.196;8.096;2022-09-11T05:42:42;20.90;66.90
15983;DHT22;14442;50.196;8.096;2022-09-11T05:45:09;20.80;66.80
15983;DHT22;14442;50.196;8.096;2022-09-11T05:47:36;20.90;66.90
15983;DHT22;14442;50.196;8.096;2022-09-11T05:50:05;20.90;66.90
15983;DHT22;14442;50.196;8.096;2022-09-11T05:52:32;20.80;66.80
15983;DHT22;14442;50.196;8.096;2022-09-11T05:54:59;20.80;66.70
15983;DHT22;14442;50.196;8.096;2022-09-11T05:57:26;20.90;66.80
15983;DHT22;14442;50.196;8.096;2022-09-11T05:59:52;20.90;66.80
15983;DHT22;14442;50.196;8.096;2022-09-11T06:02:19;20.80;66.80
15983;DHT22;14442;50.196;8.096;2022-09-11T06:04:46;20.80;66.80
15983;DHT22;14442;50.196;8.096;2022-09-11T06:07:14;20.90;66.80
15983;DHT22;14442;50.196;8.096;2022-09-11T06:09:40;20.90;66.80
15983;DHT22;14442;50.196;8.096;2022-09-11T06:12:07;20.80;66.70
15983;DHT22;14442;50.196;8.096;2022-09-11T06:14:37;20.80;66.80
15983;DHT22;14442;50.196;8.096;2022-09-11T06:17:04;20.80;66.80
15983;DHT22;14442;50.196;8.096;2022-09-11T06:19:31;20.80;66.80
15983;DHT22;14442;50.196;8.096;2022-09-11T06:21:58;20.80;66.80
15983;DHT22;14442;50.196;8.096;2022-09-11T06:24:26;20.80;66.70
15983;DHT22;14442;50.196;8.096;2022-09-11T06:26:53;20.80;66.80
15983;DHT22;14442;50.196;8.096;2022-09-11T06:29:20;20.80;66.80
15983;DHT22;14442;50.196;8.096;2022-09-11T06:31:46;20.80;66.80
15983;DHT22;14442;50.196;8.096;2022-09-11T06:34:16;20.80;66.80
15983;DHT22;14442;50.196;8.096;2022-09-11T06:36:44;20.80;66.80
15983;DHT22;14442;50.196;8.096;2022-09-11T06:39:11;20.80;66.80
15983;DHT22;14442;50.196;8.096;2022-09-11T06:41:39;20.80;66.80
15983;DHT22;14442;50.196;8.096;2022-09-11T06:44:06;20.80;66.80
15983;DHT22;14442;50.196;8.096;2022-09-11T06:46:34;20.80;66.70
15983;DHT22;14442;50.196;8.096;2022-09-11T06:49:01;20.80;66.80
15983;DHT22;14442;50.196;8.096;2022-09-11T06:51:28;20.80;66.70
15983;DHT22;14442;50.196;8.096;2022-09-11T06:53:55;20.80;66.80
15983;DHT22;14442;50.196;8.096;2022-09-11T06:56:22;20.80;66.70
15983;DHT22;14442;50.196;8.096;2022-09-11T06:58:51;20.70;66.70
15983;DHT22;14442;50.196;8.096;2022-09-11T07:01:19;20.80;66.70
15983;DHT22;14442;50.196;8.096;2022-09-11T07:03:48;20.80;66.80
15983;DHT22;14442;50.196;8.096;2022-09-11T07:06:17;20.80;66.80
15983;DHT22;14442;50.196;8.096;2022-09-11T07:08:48;20.80;66.70
15983;DHT22;14442;50.196;8.096;2022-09-11T07:11:17;20.80;66.80
15983;DHT22;14442;50.196;8.096;2022-09-11T07:13:44;20.80;66.70
15983;DHT22;14442;50.196;8.096;2022-09-11T07:16:12;20.80;66.70
15983;DHT22;14442;50.196;8.096;2022-09-11T07:18:41;20.80;66.60
15983;DHT22;14442;50.196;8.096;2022-09-11T07:21:10;20.80;67.40
15983;DHT22;14442;50.196;8.096;2022-09-11T07:23:37;20.80;66.70
15983;DHT22;14442;50.196;8.096;2022-09-11T07:26:07;20.80;66.70
15983;DHT22;14442;50.196;8.096;2022-09-11T07:28:34;20.90;66.80
15983;DHT22;14442;50.196;8.096;2022-09-11T07:31:04;20.80;66.60
15983;DHT22;14442;50.196;8.096;2022-09-11T07:33:32;20.90;67.00
15983;DHT22;14442;50.196;8.096;2022-09-11T07:35:59;20.90;66.90
15983;DHT22;14442;50.196;8.096;2022-09-11T07:38:28;20.90;66.90
15983;DHT22;14442;50.196;8.096;2022-09-11T07:40:55;20.90;67.10
15983;DHT22;14442;50.196;8.096;2022-09-11T07:43:22;21.00;67.30
15983;DHT22;14442;50.196;8.096;2022-09-11T07:45:51;21.00;67.70
15983;DHT22;14442;50.196;8.096;2022-09-11T07:48:20;21.00;68.00
15983;DHT22;14442;50.196;8.096;2022-09-11T07:50:55;21.00;68.00
15983;DHT22;14442;50.196;8.096;2022-09-11T07:53:23;21.00;67.90
15983;DHT22;14442;50.196;8.096;2022-09-11T07:55:49;21.00;67.90
15983;DHT22;14442;50.196;8.096;2022-09-11T07:58:16;21.00;68.70
15983;DHT22;14442;50.196;8.096;2022-09-11T08:00:43;21.00;68.00
15983;DHT22;14442;50.196;8.096;2022-09-11T08:03:10;21.00;67.90
15983;DHT22;14442;50.196;8.096;2022-09-11T08:05:37;21.00;68.00
15983;DHT22;14442;50.196;8.096;2022-09-11T08:08:05;21.00;68.10
15983;DHT22;14442;50.196;8.096;2022-09-11T08:10:34;21.00;67.70
15983;DHT22;14442;50.196;8.096;2022-09-11T08:13:03;21.00;67.80
15983;DHT22;14442;50.196;8.096;2022-09-11T08:15:30;21.00;67.60
15983;DHT22;14442;50.196;8.096;2022-09-11T08:17:57;21.00;67.60
15983;DHT22;14442;50.196;8.096;2022-09-11T08:20:23;21.00;67.60
15983;DHT22;14442;50.196;8.096;2022-09-11T08:22:50;20.90;67.60
15983;DHT22;14442;50.196;8.096;2022-09-11T08:25:18;21.00;67.80
15983;DHT22;14442;50.196;8.096;2022-09-11T08:27:45;20.90;67.70
15983;DHT22;14442;50.196;8.096;2022-09-11T08:30:11;20.90;67.90
15983;DHT22;14442;50.196;8.096;2022-09-11T08:32:38;21.00;67.90
15983;DHT22;14442;50.196;8.096;2022-09-11T08:35:06;20.90;67.70
15983;DHT22;14442;50.196;8.096;2022-09-11T08:37:32;21.00;67.80
15983;DHT22;14442;50.196;8.096;2022-09-11T08:39:59;20.90;67.60
15983;DHT22;14442;50.196;8.096;2022-09-11T08:42:27;20.90;67.60
15983;DHT22;14442;50.196;8.096;2022-09-11T08:44:56;20.90;67.50
15983;DHT22;14442;50.196;8.096;2022-09-11T08:47:25;20.90;67.50
15983;DHT22;14442;50.196;8.096;2022-09-11T08:49:57;20.90;67.70
15983;DHT22;14442;50.196;8.096;2022-09-11T08:52:26;20.90;67.60
15983;DHT22;14442;50.196;8.096;2022-09-11T08:54:56;20.90;67.50
15983;DHT22;14442;50.196;8.096;2022-09-11T08:57:31;20.90;67.40
15983;DHT22;14442;50.196;8.096;2022-09-11T09:00:06;20.90;67.40
15983;DHT22;14442;50.196;8.096;2022-09-11T09:02:55;20.90;67.70
15983;DHT22;14442;50.196;8.096;2022-09-11T09:05:30;20.90;67.50
15983;DHT22;14442;50.196;8.096;2022-09-11T09:08:09;20.90;67.40
15983;DHT22;14442;50.196;8.096;2022-09-11T09:10:48;20.90;67.40
15983;DHT22;14442;50.196;8.096;2022-09-11T09:13:32;20.90;67.60
15983;DHT22;14442;50.196;8.096;2022-09-11T09:16:07;20.90;67.70
15983;DHT22;14442;50.196;8.096;2022-09-11T09:18:40;21.00;67.70
15983;DHT22;14442;50.196;8.096;2022-09-11T09:21:13;20.90;67.60
15983;DHT22;14442;50.196;8.096;2022-09-11T09:23:44;20.90;67.60
15983;DHT22;14442;50.196;8.096;2022-09-11T09:26:16;21.00;67.70
15983;DHT22;14442;50.196;8.096;2022-09-11T09:28:46;21.00;67.70
15983;DHT22;14442;50.196;8.096;2022-09-11T09:31:18;21.00;67.60
15983;DHT22;14442;50.196;8.096;2022-09-11T09:33:48;20.90;67.40
15983;DHT22;14442;50.196;8.096;2022-09-11T09:36:20;20.90;67.40
15983;DHT22;14442;50.196;8.096;2022-09-11T09:38:48;21.00;67.50
15983;DHT22;14442;50.196;8.096;2022-09-11T09:41:33;21.00;67.50
15983;DHT22;14442;50.196;8.096;2022-09-11T09:44:12;21.00;67.40
15983;DHT22;14442;50.196;8.096;2022-09-11T09:46:45;21.00;67.30
15983;DHT22;14442;50.196;8.096;2022-09-11T09:49:17;21.00;67.30
15983;DHT22;14442;50.196;8.096;2022-09-11T09:51:47;20.90;67.20
15983;DHT22;14442;50.196;8.096;2022-09-11T09:54:18;20.90;67.20
15983;DHT22;14442;50.196;8.096;2022-09-11T09:56:55;20.90;67.20
15983;DHT22;14442;50.196;8.096;2022-09-11T09:59:27;21.00;67.30
15983;DHT22;14442;50.196;8.096;2022-09-11T10:01:55;21.00;67.20
15983;DHT22;14442;50.196;8.096;2022-09-11T10:04:23;21.00;67.10
15983;DHT22;14442;50.196;8.096;2022-09-11T10:06:53;20.90;67.10
15983;DHT22;14442;50.196;8.096;2022-09-11T10:09:29;21.00;67.20
15983;DHT22;14442;50.196;8.096;2022-09-11T10:11:58;21.00;67.20
15983;DHT22;14442;50.196;8.096;2022-09-11T10:14:29;21.00;67.00
15983;DHT22;14442;50.196;8.096;2022-09-11T10:16:58;21.00;67.10
15983;DHT22;14442;50.196;8.096;2022-09-11T10:19:38;21.00;67.80
15983;DHT22;14442;50.196;8.096;2022-09-11T10:22:25;21.00;67.00
15983;DHT22;14442;50.196;8.096;2022-09-11T10:24:59;21.00;66.90
15983;DHT22;14442;50.196;8.096;2022-09-11T10:27:26;21.00;67.00
15983;DHT22;14442;50.196;8.096;2022-09-11T10:29:55;21.10;67.10
15983;DHT22;14442;50.196;8.096;2022-09-11T10:32:24;21.10;67.00
15983;DHT22;14442;50.196;8.096;2022-09-11T10:34:51;21.10;67.00
15983;DHT22;14442;50.196;8.096;2022-09-11T10:37:23;21.10;66.90
15983;DHT22;14442;50.196;8.096;2022-09-11T10:39:51;21.10;66.90
15983;DHT22;14442;50.196;8.096;2022-09-11T10:42:20;21.10;66.80
15983;DHT22;14442;50.196;8.096;2022-09-11T10:44:49;21.10;66.80
15983;DHT22;14442;50.196;8.096;2022-09-11T10:47:21;21.10;66.80
15983;DHT22;14442;50.196;8.096;2022-09-11T10:49:50;21.10;66.90
15983;DHT22;14442;50.196;8.096;2022-09-11T10:52:46;21.10;66.80
15983;DHT22;14442;50.196;8.096;2022-09-11T10:55:14;21.10;66.80
15983;DHT22;14442;50.196;8.096;2022-09-11T10:57:44;21.00;66.70
15983;DHT22;14442;50.196;8.096;2022-09-11T11:00:15;21.10;67.00
15983;DHT22;14442;50.196;8.096;2022-09-11T11:02:48;21.10;66.90
15983;DHT22;14442;50.196;8.096;2022-09-11T11:05:21;21.10;67.10
15983;DHT22;14442;50.196;8.096;2022-09-11T11:08:21;21.10;67.10
15983;DHT22;14442;50.196;8.096;2022-09-11T11:11:02;21.20;67.20
15983;DHT22;14442;50.196;8.096;2022-09-11T11:13:45;21.20;67.00
15983;DHT22;14442;50.196;8.096;2022-09-11T11:16:19;21.20;67.00
15983;DHT22;14442;50.196;8.096;2022-09-11T11:19:01;21.10;66.90
15983;DHT22;14442;50.196;8.096;2022-09-11T11:21:44;21.10;67.00
15983;DHT22;14442;50.196;8.096;2022-09-11T11:24:23;21.10;67.00
15983;DHT22;14442;50.196;8.096;2022-09-11T11:27:02;21.10;66.90
15983;DHT22;14442;50.196;8.096;2022-09-11T11:29:49;21.10;66.90
15983;DHT22;14442;50.196;8.096;2022-09-11T11:32:49;21.10;67.00
15983;DHT22;14442;50.196;8.096;2022-09-11T11:35:22;21.10;67.00
15983;DHT22;14442;50.196;8.096;2022-09-11T11:37:57;21.10;66.80
15983;DHT22;14442;50.196;8.096;2022-09-11T11:40:27;21.10;66.90
15983;DHT22;14442;50.196;8.096;2022-09-11T11:43:02;21.10;66.90
15983;DHT22;14442;50.196;8.096;2022-09-11T11:45:32;21.20;66.90
15983;DHT22;14442;50.196;8.096;2022-09-11T11:48:07;21.20;66.90
15983;DHT22;14442;50.196;8.096;2022-09-11T11:50:41;21.20;66.80
15983;DHT22;14442;50.196;8.096;2022-09-11T11:53:13;21.20;66.90
15983;DHT22;14442;50.196;8.096;2022-09-11T11:55:47;21.20;66.80
15983;DHT22;14442;50.196;8.096;2022-09-11T11:58:21;21.30;67.60
15983;DHT22;14442;50.196;8.096;2022-09-11T12:00:54;21.20;66.70
15983;DHT22;14442;50.196;8.096;2022-09-11T12:03:25;21.20;66.60
15983;DHT22;14442;50.196;8.096;2022-09-11T12:05:54;21.30;66.70
15983;DHT22;14442;50.196;8.096;2022-09-11T12:08:20;21.20;66.60
15983;DHT22;14442;50.196;8.096;2022-09-11T12:10:53;21.20;66.60
15983;DHT22;14442;50.196;8.096;2022-09-11T12:13:26;21.20;66.60
15983;DHT22;14442;50.196;8.096;2022-09-11T12:16:04;21.20;66.60
15983;DHT22;14442;50.196;8.096;2022-09-11T12:18:32;21.20;66.60
15983;DHT22;14442;50.196;8.096;2022-09-11T12:21:35;21.20;66.60
15983;DHT22;14442;50.196;8.096;2022-09-11T12:24:16;21.20;66.60
15983;DHT22;14442;50.196;8.096;2022-09-11T12:26:43;21.20;66.60
15983;DHT22;14442;50.196;8.096;2022-09-11T12:37:38;21.20;66.70
15983;DHT22;14442;50.196;8.096;2022-09-11T12:40:12;21.20;66.70
15983;DHT22;14442;50.196;8.096;2022-09-11T12:42:55;21.20;66.70
15983;DHT22;14442;50.196;8.096;2022-09-11T12:45:31;21.20;66.80
15983;DHT22;14442;50.196;8.096;2022-09-11T12:48:04;21.20;66.80
15983;DHT22;14442;50.196;8.096;2022-09-11T12:50:33;21.20;66.80
15983;DHT22;14442;50.196;8.096;2022-09-11T12:53:01;21.20;66.90
15983;DHT22;14442;50.196;8.096;2022-09-11T12:55:33;21.20;66.90
15983;DHT22;14442;50.196;8.096;2022-09-11T12:58:02;21.20;66.80
15983;DHT22;14442;50.196;8.096;2022-09-11T13:00:35;21.20;66.80
15983;DHT22;14442;50.196;8.096;2022-09-11T13:03:04;21.20;66.90
15983;DHT22;14442;50.196;8.096;2022-09-11T13:05:34;21.20;66.90
15983;DHT22;14442;50.196;8.096;2022-09-11T13:08:06;21.20;66.90
15983;DHT22;14442;50.196;8.096;2022-09-11T13:10:36;21.10;66.60
15983;DHT22;14442;50.196;8.096;2022-09-11T13:13:04;21.20;66.70
15983;DHT22;14442;50.196;8.096;2022-09-11T13:15:39;21.30;66.90
15983;DHT22;14442;50.196;8.096;2022-09-11T13:18:32;21.40;67.60
15983;DHT22;14442;50.196;8.096;2022-09-11T13:21:08;21.40;66.70
15983;DHT22;14442;50.196;8.096;2022-09-11T13:23:39;21.40;66.60
15983;DHT22;14442;50.196;8.096;2022-09-11T13:26:07;21.40;66.60
15983;DHT22;14442;50.196;8.096;2022-09-11T13:28:43;21.50;66.60
15983;DHT22;14442;50.196;8.096;2022-09-11T13:31:15;21.50;66.60
15983;DHT22;14442;50.196;8.096;2022-09-11T13:33:47;21.60;66.60
15983;DHT22;14442;50.196;8.096;2022-09-11T13:36:15;21.60;66.60
15983;DHT22;14442;50.196;8.096;2022-09-11T13:38:46;21.60;66.60
15983;DHT22;14442;50.196;8.096;2022-09-11T13:41:17;21.70;66.60
15983;DHT22;14442;50.196;8.096;2022-09-11T13:43:49;21.70;66.50
15983;DHT22;14442;50.196;8.096;2022-09-11T13:46:19;21.70;66.50
15983;DHT22;14442;50.196;8.096;2022-09-11T13:48:51;21.70;66.50
15983;DHT22;14442;50.196;8.096;2022-09-11T13:51:23;21.70;66.50
15983;DHT22;14442;50.196;8.096;2022-09-11T13:53:56;21.70;66.50
15983;DHT22;14442;50.196;8.096;2022-09-11T13:56:39;21.70;66.50
15983;DHT22;14442;50.196;8.096;2022-09-11T13:59:46;21.70;66.50
15983;DHT22;14442;50.196;8.096;2022-09-11T14:02:36;21.60;66.40
15983;DHT22;14442;50.196;8.096;2022-09-11T14:05:13;21.60;66.50
15983;DHT22;14442;50.196;8.096;2022-09-11T14:07:44;21.60;66.60
15983;DHT22;14442;50.196;8.096;2022-09-11T14:10:24;21.60;66.60
15983;DHT22;14442;50.196;8.096;2022-09-11T14:12:57;21.50;66.50
15983;DHT22;14442;50.196;8.096;2022-09-11T14:15:31;21.50;66.50
15983;DHT22;14442;50.196;8.096;2022-09-11T14:18:01;21.50;66.50
15983;DHT22;14442;50.196;8.096;2022-09-11T14:20:28;21.50;66.40
15983;DHT22;14442;50.196;8.096;2022-09-11T14:23:00;21.50;66.40
15983;DHT22;14442;50.196;8.096;2022-09-11T14:25:31;21.50;66.40
15983;DHT22;14442;50.196;8.096;2022-09-11T14:27:58;21.60;66.50
15983;DHT22;14442;50.196;8.096;2022-09-11T14:30:33;21.60;66.50
15983;DHT22;14442;50.196;8.096;2022-09-11T14:33:23;21.60;66.40
15983;DHT22;14442;50.196;8.096;2022-09-11T14:35:51;21.70;66.50
15983;DHT22;14442;50.196;8.096;2022-09-11T14:38:21;21.60;66.30
15983;DHT22;14442;50.196;8.096;2022-09-11T14:40:53;21.70;66.40
15983;DHT22;14442;50.196;8.096;2022-09-11T14:43:24;21.70;66.40
15983;DHT22;14442;50.196;8.096;2022-09-11T14:45:52;21.70;66.50
15983;DHT22;14442;50.196;8.096;2022-09-11T14:48:19;21.60;66.40
15983;DHT22;14442;50.196;8.096;2022-09-11T14:50:46;21.60;66.40
15983;DHT22;14442;50.196;8.096;2022-09-11T14:53:24;21.60;66.40
15983;DHT22;14442;50.196;8.096;2022-09-11T14:55:54;21.60;66.50
15983;DHT22;14442;50.196;8.096;2022-09-11T14:58:21;21.60;66.50
15983;DHT22;14442;50.196;8.096;2022-09-11T15:00:48;21.60;66.50
15983;DHT22;14442;50.196;8.096;2022-09-11T15:03:15;21.60;66.50
15983;DHT22;14442;50.196;8.096;2022-09-11T15:05:42;21.50;67.10
15983;DHT22;14442;50.196;8.096;2022-09-11T15:08:12;21.50;66.40
15983;DHT22;14442;50.196;8.096;2022-09-11T15:10:39;21.50;66.50
15983;DHT22;14442;50.196;8.096;2022-09-11T15:13:07;21.50;66.50
15983;DHT22;14442;50.196;8.096;2022-09-11T15:15:34;21.50;66.50
15983;DHT22;14442;50.196;8.096;2022-09-11T15:18:01;21.50;66.60
15983;DHT22;14442;50.196;8.096;2022-09-11T15:20:29;21.50;66.50
15983;DHT22;14442;50.196;8.096;2022-09-11T15:22:56;21.50;66.50
15983;DHT22;14442;50.196;8.096;2022-09-11T15:25:23;21.40;66.50
15983;DHT22;14442;50.196;8.096;2022-09-11T15:27:51;21.50;66.50
15983;DHT22;14442;50.196;8.096;2022-09-11T15:30:20;21.50;66.60
15983;DHT22;14442;50.196;8.096;2022-09-11T15:32:47;21.40;66.50
15983;DHT22;14442;50.196;8.096;2022-09-11T15:35:15;21.50;66.50
15983;DHT22;14442;50.196;8.096;2022-09-11T15:37:43;21.40;66.40
15983;DHT22;14442;50.196;8.096;2022-09-11T15:40:11;21.40;66.40
15983;DHT22;14442;50.196;8.096;2022-09-11T15:42:38;21.40;66.40
15983;DHT22;14442;50.196;8.096;2022-09-11T15:45:06;21.50;66.40
15983;DHT22;14442;50.196;8.096;2022-09-11T15:47:34;21.50;66.40
15983;DHT22;14442;50.196;8.096;2022-09-11T15:50:01;21.50;66.40
15983;DHT22;14442;50.196;8.096;2022-09-11T15:52:28;21.50;66.40
15983;DHT22;14442;50.196;8.096;2022-09-11T15:54:54;21.50;66.30
15983;DHT22;14442;50.196;8.096;2022-09-11T15:57:21;21.50;66.40
15983;DHT22;14442;50.196;8.096;2022-09-11T15:59:49;21.50;66.40